Red Shirt, South Dakota
Current Conditions -  °F | °C
As of 6:42 PM on Monday 22 Dec 2014 (Local Time) from KRAP Reporting Station
Light Snow Light Snow  
Wind Chill: 16°   Ceiling: 2200
Heat Index: 31°   Visibility: 1.5mi
Dew Point: 27°   Wind: 31mph
Humidity: 85%   Direction: 340°NNW
Pressure: 29.64"   Gusts: 44mph
Location:  43.7793°N, 103.069°W
Report Text: KRAP 230142Z 34027G38KT 1 1/2SM -SN BR FEW010 SCT014 OVC022 M01/M03 A2964 RMK AO2 PK WND 33045/0056 P0000 T10061028
Loading
Personal Weather Stations






























Interactive Weather Map New forecast layout! Learn more

10-Day Weather Forecast

Advertisements
Track Severe Weather on mobile